Emerald, Wisconsin
Current Conditions -  °F | °C
As of 5:55 AM on Thursday 27 Nov 2014 (Local Time) from KRNH Reporting Station
Clear Clear  
Wind Chill: -18°   Ceiling: Unl
Heat Index: -1°   Visibility: 7mi
Dew Point: -5°   Wind: 12mph
Humidity: 81%   Direction: 350°N
Pressure: 30.45"   Gusts: NA
Location:  45.08°N, 92.26°W
Report Text: KRNH 271155Z AUTO 35010KT 7SM CLR M18/M21 A3045 RMK AO2 T11821208 11120 21182
Loading
Personal Weather Stations






























Interactive Weather Map New forecast layout! Learn more

10-Day Weather Forecast

Advertisements
Track Severe Weather on mobile